createdAt,value
2023-03-18T00:00:11.358Z,8.10
2023-03-18T00:02:40.297Z,10.30
2023-03-18T00:05:09.262Z,8.60
2023-03-18T00:07:37.356Z,12.50
2023-03-18T00:10:10.583Z,6.22
2023-03-18T00:12:40.281Z,6.65
2023-03-18T00:15:11.467Z,10.50
2023-03-18T00:17:40.187Z,10.65
2023-03-18T00:20:09.411Z,7.60
2023-03-18T00:22:38.966Z,8.38
2023-03-18T00:25:10.025Z,12.73
2023-03-18T00:27:38.400Z,10.93
2023-03-18T00:30:07.489Z,7.90
2023-03-18T00:32:34.777Z,8.68
2023-03-18T00:35:02.244Z,6.82
2023-03-18T00:37:30.990Z,9.93
2023-03-18T00:40:06.297Z,10.18
2023-03-18T00:42:39.447Z,10.30
2023-03-18T00:45:10.973Z,9.52
2023-03-18T00:47:38.562Z,6.68
2023-03-18T00:50:08.533Z,8.13
2023-03-18T00:52:37.581Z,14.00
2023-03-18T00:55:06.845Z,10.70
2023-03-18T00:57:35.380Z,6.90
2023-03-18T01:00:11.463Z,12.48
2023-03-18T01:02:38.554Z,11.90
2023-03-18T01:05:05.950Z,9.93
2023-03-18T01:07:33.265Z,11.43
2023-03-18T01:10:01.482Z,10.40
2023-03-18T01:12:33.233Z,9.88
2023-03-18T01:15:05.702Z,10.45
2023-03-18T01:17:36.071Z,11.82
2023-03-18T01:20:07.885Z,10.95
2023-03-18T01:22:35.003Z,8.73
2023-03-18T01:25:02.547Z,8.90
2023-03-18T01:27:36.310Z,9.05
2023-03-18T01:30:07.076Z,7.20
2023-03-18T01:32:34.468Z,8.70
2023-03-18T01:35:01.908Z,8.82
2023-03-18T01:37:29.201Z,9.23
2023-03-18T01:40:13.589Z,14.95
2023-03-18T01:42:47.349Z,8.30
2023-03-18T01:45:25.742Z,9.02
2023-03-18T01:47:58.252Z,8.88
2023-03-18T01:50:38.209Z,11.40
2023-03-18T01:53:15.860Z,11.40
2023-03-18T01:55:50.027Z,17.10
2023-03-18T01:58:27.157Z,12.32
2023-03-18T02:01:06.185Z,14.63
2023-03-18T02:03:35.098Z,14.98
2023-03-18T02:06:03.169Z,14.98
2023-03-18T02:08:30.266Z,12.57
2023-03-18T02:10:57.780Z,12.77
2023-03-18T02:13:26.372Z,13.27
2023-03-18T02:16:05.123Z,14.90
2023-03-18T02:18:48.931Z,12.40
2023-03-18T02:21:51.955Z,16.10
2023-03-18T02:24:46.274Z,11.50
2023-03-18T02:27:30.003Z,11.57
2023-03-18T02:30:03.059Z,9.23
2023-03-18T02:32:35.865Z,13.82
2023-03-18T02:35:08.266Z,12.15
2023-03-18T02:37:38.137Z,11.27
2023-03-18T02:40:25.213Z,13.93
2023-03-18T02:42:52.885Z,16.27
2023-03-18T02:45:52.538Z,15.82
2023-03-18T02:48:23.652Z,14.05
2023-03-18T02:50:50.741Z,13.15
2023-03-18T02:53:18.253Z,16.60
2023-03-18T02:55:45.536Z,10.90
2023-03-18T02:58:12.675Z,13.50
2023-03-18T03:00:41.050Z,13.55
2023-03-18T03:03:08.333Z,7.93
2023-03-18T03:05:36.075Z,10.32
2023-03-18T03:08:03.931Z,9.93
2023-03-18T03:10:34.344Z,13.63
2023-03-18T03:13:02.294Z,11.90
2023-03-18T03:15:30.432Z,13.30
2023-03-18T03:17:59.730Z,16.42
2023-03-18T03:20:26.820Z,9.00
2023-03-18T03:22:54.039Z,12.80
2023-03-18T03:25:22.363Z,11.32
2023-03-18T03:27:49.815Z,7.97
2023-03-18T03:30:18.439Z,12.50
2023-03-18T03:32:49.877Z,7.80
2023-03-18T03:35:31.393Z,12.40
2023-03-18T03:37:59.509Z,8.38
2023-03-18T03:40:27.676Z,10.48
2023-03-18T03:42:55.058Z,10.75
2023-03-18T03:45:22.628Z,14.45
2023-03-18T03:47:49.813Z,8.00
2023-03-18T03:50:18.349Z,14.15
2023-03-18T03:52:46.095Z,12.68
2023-03-18T03:55:18.156Z,11.77
2023-03-18T03:57:46.929Z,13.15
2023-03-18T04:00:20.421Z,15.60
2023-03-18T04:02:51.953Z,13.95
2023-03-18T04:05:24.753Z,13.40
2023-03-18T04:07:53.395Z,12.07
2023-03-18T04:10:31.135Z,12.90
2023-03-18T04:12:59.274Z,14.75
2023-03-18T04:15:27.676Z,10.93
2023-03-18T04:17:55.518Z,15.18
2023-03-18T04:20:24.264Z,18.45
2023-03-18T04:22:51.762Z,13.10
2023-03-18T04:25:20.822Z,16.30
2023-03-18T04:27:52.612Z,12.93
2023-03-18T04:30:23.288Z,16.77
2023-03-18T04:33:03.443Z,14.52
2023-03-18T04:35:31.974Z,12.60
2023-03-18T04:37:59.582Z,18.75
2023-03-18T04:40:27.091Z,13.38
2023-03-18T04:42:54.017Z,18.40
2023-03-18T04:45:24.990Z,12.98
2023-03-18T04:47:55.379Z,17.05
2023-03-18T04:50:24.232Z,11.98
2023-03-18T04:52:51.507Z,17.50
2023-03-18T04:55:23.902Z,15.95
2023-03-18T04:57:51.389Z,16.95
2023-03-18T05:00:25.266Z,15.77
2023-03-18T05:03:03.088Z,15.48
2023-03-18T05:05:31.789Z,15.45
2023-03-18T05:08:00.095Z,15.60
2023-03-18T05:10:28.377Z,15.90
2023-03-18T05:12:58.964Z,16.23
2023-03-18T05:15:32.554Z,17.13
2023-03-18T05:18:00.481Z,18.60
2023-03-18T05:20:28.657Z,13.70
2023-03-18T05:22:55.714Z,17.35
2023-03-18T05:25:50.390Z,16.45
2023-03-18T05:28:18.936Z,13.13
2023-03-18T05:30:55.131Z,13.10
2023-03-18T05:33:23.490Z,14.10
2023-03-18T05:35:57.020Z,16.05
2023-03-18T05:38:30.129Z,15.40
2023-03-18T05:40:57.950Z,12.98
2023-03-18T05:43:33.821Z,13.23
2023-03-18T05:46:01.395Z,13.73
2023-03-18T05:48:51.706Z,10.77
2023-03-18T05:51:20.798Z,14.70
2023-03-18T05:53:50.693Z,12.35
2023-03-18T05:56:24.638Z,12.40
2023-03-18T05:58:56.361Z,14.90
2023-03-18T06:01:44.739Z,12.20
2023-03-18T06:04:12.077Z,15.20
2023-03-18T06:06:40.741Z,20.85
2023-03-18T06:09:13.427Z,19.15
2023-03-18T06:11:56.291Z,14.07
2023-03-18T06:14:30.159Z,15.68
2023-03-18T06:17:01.168Z,14.70
2023-03-18T06:19:30.646Z,15.00
2023-03-18T06:21:58.900Z,12.32
2023-03-18T06:24:26.409Z,13.02
2023-03-18T06:26:55.817Z,13.25
2023-03-18T06:29:23.209Z,15.70
2023-03-18T06:31:52.455Z,10.35
2023-03-18T06:34:24.815Z,7.88
2023-03-18T06:36:52.392Z,11.90
2023-03-18T06:39:21.693Z,13.50
2023-03-18T06:41:51.251Z,14.73
2023-03-18T06:44:50.611Z,16.17
2023-03-18T06:47:29.266Z,14.88
2023-03-18T06:50:22.183Z,17.00
2023-03-18T06:53:03.915Z,15.20
2023-03-18T06:55:35.047Z,15.00
2023-03-18T06:58:10.713Z,13.85
2023-03-18T07:01:08.460Z,13.15
2023-03-18T07:03:51.373Z,12.93
2023-03-18T07:06:27.930Z,12.48
2023-03-18T07:08:59.765Z,12.13
2023-03-18T07:11:28.630Z,12.45
2023-03-18T07:13:56.473Z,12.15
2023-03-18T07:16:30.791Z,14.32
2023-03-18T07:18:59.139Z,16.00
2023-03-18T07:21:27.711Z,11.98
2023-03-18T07:23:55.543Z,12.63
2023-03-18T07:26:25.768Z,16.33
2023-03-18T07:28:52.613Z,10.82
2023-03-18T07:31:19.527Z,11.10
2023-03-18T07:33:46.895Z,9.18
2023-03-18T07:36:14.212Z,12.05
2023-03-18T07:38:41.276Z,15.25
2023-03-18T07:41:08.494Z,12.65
2023-03-18T07:43:37.013Z,12.93
2023-03-18T07:46:04.556Z,16.70
2023-03-18T07:48:34.150Z,15.18
2023-03-18T07:51:01.982Z,12.57
2023-03-18T07:53:29.399Z,10.80
2023-03-18T07:55:56.314Z,11.00
2023-03-18T07:58:24.510Z,8.48
2023-03-18T08:00:52.961Z,9.23
2023-03-18T08:03:19.908Z,8.10
2023-03-18T08:05:46.827Z,11.65
2023-03-18T08:08:13.774Z,7.85
2023-03-18T08:10:40.616Z,10.93
2023-03-18T08:13:07.603Z,9.00
2023-03-18T08:15:35.060Z,9.02
2023-03-18T08:18:02.473Z,10.82
2023-03-18T08:20:29.455Z,10.65
2023-03-18T08:22:57.146Z,8.93
2023-03-18T08:25:24.748Z,10.80
2023-03-18T08:27:52.386Z,8.70
2023-03-18T08:30:19.951Z,5.97
2023-03-18T08:32:47.045Z,8.15
2023-03-18T08:35:14.451Z,10.70
2023-03-18T08:37:41.472Z,8.27
2023-03-18T08:40:09.794Z,8.35
2023-03-18T08:42:36.718Z,10.30
2023-03-18T08:45:04.821Z,7.30
2023-03-18T08:47:32.339Z,7.93
2023-03-18T08:49:59.333Z,12.55
2023-03-18T08:52:26.219Z,11.18
2023-03-18T08:54:53.181Z,9.63
2023-03-18T08:57:20.138Z,7.63
2023-03-18T08:59:47.064Z,11.70
2023-03-18T09:02:16.866Z,9.50
2023-03-18T09:04:44.902Z,7.68
2023-03-18T09:07:13.108Z,6.63
2023-03-18T09:09:43.958Z,5.75
2023-03-18T09:12:14.778Z,8.07
2023-03-18T09:14:43.865Z,8.40
2023-03-18T09:17:11.004Z,8.18
2023-03-18T09:19:38.391Z,7.10
2023-03-18T09:22:05.741Z,10.88
2023-03-18T09:24:32.861Z,12.77
2023-03-18T09:26:59.886Z,6.80
2023-03-18T09:29:27.641Z,8.45
2023-03-18T09:31:55.474Z,9.07
2023-03-18T09:34:22.751Z,3.78
2023-03-18T09:36:51.508Z,5.40
2023-03-18T09:39:20.606Z,6.90
2023-03-18T09:42:13.296Z,6.68
2023-03-18T09:44:40.959Z,7.10
2023-03-18T09:47:22.153Z,6.75
2023-03-18T09:50:08.316Z,4.30
2023-03-18T09:52:44.153Z,4.80
2023-03-18T09:55:40.127Z,4.63
2023-03-18T09:58:23.391Z,5.20
2023-03-18T10:00:58.319Z,6.03
2023-03-18T10:06:16.306Z,7.03
2023-03-18T10:09:12.316Z,12.25
2023-03-18T10:11:47.361Z,5.68
2023-03-18T10:17:14.766Z,6.07
2023-03-18T10:19:58.883Z,7.18
2023-03-18T10:22:54.229Z,4.57
2023-03-18T10:25:41.592Z,3.97
2023-03-18T10:28:50.956Z,4.57
2023-03-18T10:31:31.971Z,3.90
2023-03-18T10:34:23.458Z,5.45
2023-03-18T10:37:31.907Z,3.53
2023-03-18T10:40:00.161Z,4.18
2023-03-18T10:42:31.886Z,6.90
2023-03-18T10:45:31.037Z,4.00
2023-03-18T10:48:29.395Z,5.50
2023-03-18T10:51:21.993Z,8.60
2023-03-18T10:54:10.274Z,7.88
2023-03-18T10:56:37.830Z,6.88
2023-03-18T10:59:24.506Z,7.13
2023-03-18T11:02:30.780Z,6.13
2023-03-18T11:05:22.259Z,3.85
2023-03-18T11:08:01.337Z,2.47
2023-03-18T11:10:35.888Z,6.53
2023-03-18T11:13:03.769Z,3.42
2023-03-18T11:15:39.800Z,5.82
2023-03-18T11:18:19.600Z,3.40
2023-03-18T11:21:00.561Z,4.63
2023-03-18T11:23:56.114Z,9.82
2023-03-18T11:26:26.543Z,4.43
2023-03-18T11:29:09.407Z,4.80
2023-03-18T11:31:51.080Z,4.13
2023-03-18T11:34:19.764Z,4.28
2023-03-18T11:37:01.325Z,3.42
2023-03-18T11:39:37.494Z,3.88
2023-03-18T11:42:22.156Z,5.50
2023-03-18T11:44:56.184Z,3.63
2023-03-18T11:47:30.215Z,4.33
2023-03-18T11:49:57.505Z,1.90
2023-03-18T11:53:00.833Z,2.88
2023-03-18T11:55:52.269Z,2.65
2023-03-18T11:58:22.181Z,4.45
2023-03-18T12:01:56.795Z,2.75
2023-03-18T12:05:16.705Z,3.30
2023-03-18T12:08:29.589Z,4.45
2023-03-18T12:11:42.582Z,4.50
2023-03-18T12:14:38.797Z,5.78
2023-03-18T12:17:49.660Z,2.67
2023-03-18T12:20:49.547Z,7.55
2023-03-18T12:23:53.588Z,5.93
2023-03-18T12:26:35.158Z,4.20
2023-03-18T12:29:13.521Z,4.38
2023-03-18T12:32:34.057Z,6.78
2023-03-18T12:35:34.422Z,4.75
2023-03-18T12:38:16.929Z,6.57
2023-03-18T12:41:09.582Z,4.38
2023-03-18T12:44:14.319Z,6.43
2023-03-18T12:47:11.632Z,3.28
2023-03-18T12:49:53.374Z,5.25
2023-03-18T12:52:31.667Z,3.85
2023-03-18T12:55:07.651Z,7.15
2023-03-18T12:57:59.565Z,8.05
2023-03-18T13:00:57.164Z,6.45
2023-03-18T13:03:35.500Z,4.07
2023-03-18T13:06:15.649Z,4.70
2023-03-18T13:09:31.951Z,5.35
2023-03-18T13:12:32.148Z,3.63
2023-03-18T13:15:31.006Z,4.07
2023-03-18T13:18:12.414Z,2.67
2023-03-18T13:20:41.863Z,3.33
2023-03-18T13:23:46.343Z,2.25
2023-03-18T13:27:01.646Z,2.40
2023-03-18T13:30:10.821Z,2.78
2023-03-18T13:33:07.865Z,4.28
2023-03-18T13:36:22.409Z,5.32
2023-03-18T13:39:19.641Z,4.75
2023-03-18T13:42:41.718Z,8.05
2023-03-18T13:45:33.663Z,4.05
2023-03-18T13:48:08.766Z,3.60
2023-03-18T13:50:43.184Z,4.05
2023-03-18T13:53:27.326Z,3.70
2023-03-18T13:55:57.662Z,3.60
2023-03-18T13:58:45.358Z,4.15
2023-03-18T14:01:29.395Z,5.88
2023-03-18T14:04:20.339Z,4.00
2023-03-18T14:07:17.495Z,4.43
2023-03-18T14:10:20.328Z,10.25
2023-03-18T14:12:48.517Z,5.65
2023-03-18T14:15:15.641Z,8.15
2023-03-18T14:17:56.942Z,8.35
2023-03-18T14:20:36.809Z,8.90
2023-03-18T14:23:42.622Z,7.75
2023-03-18T14:26:27.021Z,4.55
2023-03-18T14:29:14.441Z,8.45
2023-03-18T14:31:44.158Z,4.55
2023-03-18T14:34:16.633Z,5.57
2023-03-18T14:37:24.200Z,5.47
2023-03-18T14:39:55.184Z,2.92
2023-03-18T14:42:58.779Z,3.05
2023-03-18T14:45:37.546Z,4.05
2023-03-18T14:48:31.716Z,4.25
2023-03-18T14:51:04.896Z,4.20
2023-03-18T14:53:48.977Z,8.50
2023-03-18T14:56:25.242Z,7.57
2023-03-18T14:58:55.132Z,8.07
2023-03-18T15:01:40.496Z,7.75
2023-03-18T15:06:41.809Z,5.65
2023-03-18T15:09:18.258Z,4.63
2023-03-18T15:11:47.757Z,4.80
2023-03-18T15:14:30.375Z,3.58
2023-03-18T15:17:01.770Z,3.42
2023-03-18T15:19:30.541Z,4.50
2023-03-18T15:22:05.922Z,5.68
2023-03-18T15:24:33.830Z,6.15
2023-03-18T15:27:17.785Z,8.68
2023-03-18T15:29:51.510Z,5.00
2023-03-18T15:32:47.166Z,6.45
2023-03-18T15:35:24.299Z,9.20
2023-03-18T15:38:08.970Z,8.32
2023-03-18T15:40:54.694Z,7.57
2023-03-18T15:43:51.583Z,8.88
2023-03-18T15:46:27.266Z,7.88
2023-03-18T15:48:56.890Z,6.28
2023-03-18T15:51:26.788Z,11.35
2023-03-18T15:54:05.742Z,6.93
2023-03-18T15:56:36.002Z,6.95
2023-03-18T15:59:15.884Z,4.13
2023-03-18T16:01:43.251Z,5.43
2023-03-18T16:04:16.319Z,7.80
2023-03-18T16:06:44.463Z,7.82
2023-03-18T16:09:23.944Z,7.28
2023-03-18T16:11:54.081Z,6.88
2023-03-18T16:14:29.124Z,8.25
2023-03-18T16:19:28.146Z,7.00
2023-03-18T16:21:58.964Z,5.50
2023-03-18T16:24:26.367Z,5.45
2023-03-18T16:26:55.134Z,5.22
2023-03-18T16:29:38.170Z,5.72
2023-03-18T16:32:06.320Z,7.70
2023-03-18T16:34:34.850Z,6.95
2023-03-18T16:37:02.179Z,6.70
2023-03-18T16:39:35.195Z,7.10
2023-03-18T16:42:05.155Z,7.15
2023-03-18T16:44:35.546Z,6.20
2023-03-18T16:47:02.488Z,5.55
2023-03-18T16:49:36.514Z,8.70
2023-03-18T16:52:03.907Z,6.50
2023-03-18T16:54:33.783Z,4.63
2023-03-18T16:57:04.592Z,8.57
2023-03-18T16:59:38.367Z,10.52
2023-03-18T17:02:25.092Z,8.30
2023-03-18T17:04:51.948Z,10.60
2023-03-18T17:07:18.850Z,6.13
2023-03-18T17:09:45.813Z,5.00
2023-03-18T17:12:14.088Z,5.72
2023-03-18T17:14:54.801Z,6.72
2023-03-18T17:17:33.049Z,9.07
2023-03-18T17:20:00.239Z,7.07
2023-03-18T17:22:30.924Z,4.75
2023-03-18T17:25:00.074Z,7.32
2023-03-18T17:27:36.098Z,6.15
2023-03-18T17:30:10.418Z,6.85
2023-03-18T17:32:37.487Z,5.25
2023-03-18T17:35:17.667Z,8.93
2023-03-18T17:37:45.919Z,5.63
2023-03-18T17:40:16.561Z,12.18
2023-03-18T17:42:46.247Z,9.25
2023-03-18T17:45:35.032Z,6.13
2023-03-18T17:48:27.513Z,6.60
2023-03-18T17:50:58.428Z,6.22
2023-03-18T17:53:27.445Z,7.03
2023-03-18T17:55:55.757Z,8.98
2023-03-18T17:58:28.273Z,5.85
2023-03-18T18:01:29.646Z,10.00
2023-03-18T18:04:09.896Z,8.82
2023-03-18T18:06:49.571Z,7.20
2023-03-18T18:09:29.025Z,12.02
2023-03-18T18:11:59.054Z,8.23
2023-03-18T18:14:33.338Z,10.20
2023-03-18T18:17:05.219Z,7.60
2023-03-18T18:19:36.344Z,10.73
2023-03-18T18:22:07.765Z,12.15
2023-03-18T18:24:36.195Z,8.07
2023-03-18T18:27:05.130Z,7.28
2023-03-18T18:29:35.018Z,8.30
2023-03-18T18:32:02.343Z,10.43
2023-03-18T18:34:29.385Z,7.72
2023-03-18T18:36:56.726Z,9.25
2023-03-18T18:39:24.134Z,8.15
2023-03-18T18:41:51.321Z,10.85
2023-03-18T18:44:19.094Z,12.38
2023-03-18T18:46:46.577Z,9.90
2023-03-18T18:49:22.303Z,10.27
2023-03-18T18:51:55.827Z,11.52
2023-03-18T18:54:24.676Z,9.70
2023-03-18T18:56:52.353Z,12.18
2023-03-18T18:59:27.477Z,9.57
2023-03-18T19:04:24.027Z,8.77
2023-03-18T19:06:54.522Z,12.82
2023-03-18T19:09:26.430Z,12.93
2023-03-18T19:11:56.139Z,16.48
2023-03-18T19:14:28.309Z,14.48
2023-03-18T19:16:58.633Z,13.93
2023-03-18T19:19:34.314Z,11.05
2023-03-18T19:22:02.779Z,13.95
2023-03-18T19:24:36.975Z,12.38
2023-03-18T19:27:13.617Z,17.92
2023-03-18T19:29:41.419Z,14.00
2023-03-18T19:32:22.908Z,9.70
2023-03-18T19:34:52.764Z,14.27
2023-03-18T19:37:29.106Z,13.45
2023-03-18T19:39:57.707Z,12.43
2023-03-18T19:42:25.485Z,10.43
2023-03-18T19:44:52.492Z,13.88
2023-03-18T19:47:29.380Z,13.68
2023-03-18T19:49:56.392Z,13.25
2023-03-18T19:52:27.594Z,17.52
2023-03-18T19:54:55.601Z,14.00
2023-03-18T19:57:32.644Z,13.73
2023-03-18T20:00:05.046Z,14.52
2023-03-18T20:02:34.840Z,13.40
2023-03-18T20:05:16.482Z,15.68
2023-03-18T20:07:43.463Z,14.30
2023-03-18T20:10:13.682Z,15.98
2023-03-18T20:12:48.139Z,15.38
2023-03-18T20:15:20.790Z,14.65
2023-03-18T20:17:50.620Z,13.52
2023-03-18T20:20:49.676Z,16.58
2023-03-18T20:23:26.544Z,16.58
2023-03-18T20:25:54.007Z,13.50
2023-03-18T20:28:26.643Z,13.10
2023-03-18T20:30:56.309Z,16.45
2023-03-18T20:33:23.417Z,18.42
2023-03-18T20:35:53.573Z,20.27
2023-03-18T20:38:23.279Z,18.38
2023-03-18T20:40:50.638Z,17.50
2023-03-18T20:43:20.380Z,20.25
2023-03-18T20:45:47.877Z,18.38
2023-03-18T20:48:14.754Z,17.25
2023-03-18T20:50:41.610Z,12.60
2023-03-18T20:53:24.030Z,12.95
2023-03-18T20:55:52.761Z,11.35
2023-03-18T20:58:23.368Z,10.98
2023-03-18T21:00:52.113Z,14.48
2023-03-18T21:03:24.533Z,12.10
2023-03-18T21:05:53.389Z,14.35
2023-03-18T21:08:21.563Z,13.07
2023-03-18T21:10:48.936Z,11.75
2023-03-18T21:13:35.950Z,10.90
2023-03-18T21:16:06.162Z,13.00
2023-03-18T21:18:35.503Z,11.60
2023-03-18T21:21:02.425Z,11.20
2023-03-18T21:23:33.102Z,19.52
2023-03-18T21:26:01.068Z,22.80
2023-03-18T21:28:30.080Z,14.98
2023-03-18T21:30:58.610Z,17.67
2023-03-18T21:33:29.857Z,9.43
2023-03-18T21:35:57.756Z,19.25
2023-03-18T21:38:30.586Z,15.88
2023-03-18T21:41:00.779Z,7.60
2023-03-18T21:43:40.862Z,7.50
2023-03-18T21:46:16.200Z,8.55
2023-03-18T21:48:43.198Z,8.63
2023-03-18T21:51:39.930Z,10.07
2023-03-18T21:54:19.537Z,10.45
2023-03-18T21:56:46.511Z,8.07
2023-03-18T21:59:13.503Z,9.98
2023-03-18T22:01:40.487Z,10.73
2023-03-18T22:04:07.546Z,14.15
2023-03-18T22:06:34.553Z,14.60
2023-03-18T22:09:01.540Z,10.10
2023-03-18T22:11:28.398Z,8.60
2023-03-18T22:13:55.327Z,9.20
2023-03-18T22:16:22.510Z,10.45
2023-03-18T22:18:49.410Z,8.00
2023-03-18T22:21:28.311Z,10.68
2023-03-18T22:23:55.625Z,12.25
2023-03-18T22:26:22.806Z,12.75
2023-03-18T22:28:50.581Z,18.48
2023-03-18T22:31:26.366Z,9.80
2023-03-18T22:33:54.835Z,12.85
2023-03-18T22:36:21.954Z,9.35
2023-03-18T22:38:49.339Z,8.05
2023-03-18T22:41:23.883Z,10.98
2023-03-18T22:43:51.331Z,9.88
2023-03-18T22:46:18.538Z,8.65
2023-03-18T22:48:45.596Z,10.20
2023-03-18T22:51:41.555Z,8.13
2023-03-18T22:54:18.888Z,9.65
2023-03-18T22:56:45.766Z,10.27
2023-03-18T22:59:14.261Z,11.15
2023-03-18T23:01:41.166Z,11.02
2023-03-18T23:04:12.237Z,7.70
2023-03-18T23:06:39.124Z,8.75
2023-03-18T23:09:06.087Z,12.10
2023-03-18T23:11:34.711Z,6.32
2023-03-18T23:14:03.174Z,10.10
2023-03-18T23:16:30.375Z,6.13
2023-03-18T23:18:57.289Z,7.60
2023-03-18T23:21:25.562Z,8.48
2023-03-18T23:23:53.372Z,7.22
2023-03-18T23:26:20.458Z,9.05
2023-03-18T23:28:48.791Z,8.57
2023-03-18T23:31:16.522Z,8.32
2023-03-18T23:33:44.292Z,8.02
2023-03-18T23:36:12.184Z,8.20
2023-03-18T23:38:39.331Z,9.07
2023-03-18T23:41:07.224Z,8.15
2023-03-18T23:43:34.134Z,9.02
2023-03-18T23:46:02.166Z,5.00
2023-03-18T23:48:29.805Z,8.25
2023-03-18T23:50:56.818Z,9.25
2023-03-18T23:53:23.757Z,9.25
2023-03-18T23:55:50.956Z,7.45
2023-03-18T23:58:18.082Z,6.85
